sensor_id;sensor_type;location;lat;lon;timestamp;pressure;altitude;pressure_sealevel;temperature;humidity
56558;BME280;43358;50.356;12.456;2023-04-26T00:00:11;95300;;;1.7;92.4
56558;BME280;43358;50.356;12.456;2023-04-26T00:01:12;95301;;;1.7;92.5
56558;BME280;43358;50.356;12.456;2023-04-26T00:02:14;95301;;;1.7;92.2
56558;BME280;43358;50.356;12.456;2023-04-26T00:03:20;95299;;;1.7;92.2
56558;BME280;43358;50.356;12.456;2023-04-26T00:04:20;95298;;;1.7;92.3
56558;BME280;43358;50.356;12.456;2023-04-26T00:05:21;95297;;;1.7;92.5
56558;BME280;43358;50.356;12.456;2023-04-26T00:06:22;95299;;;1.7;92.5
56558;BME280;43358;50.356;12.456;2023-04-26T00:07:24;95305;;;1.7;92.6
56558;BME280;43358;50.356;12.456;2023-04-26T00:08:26;95304;;;1.7;92.9
56558;BME280;43358;50.356;12.456;2023-04-26T00:09:28;95305;;;1.7;92.6
56558;BME280;43358;50.356;12.456;2023-04-26T00:10:30;95306;;;1.7;92.5
56558;BME280;43358;50.356;12.456;2023-04-26T00:11:33;95306;;;1.7;92.6
56558;BME280;43358;50.356;12.456;2023-04-26T00:12:35;95308;;;1.7;92.4
56558;BME280;43358;50.356;12.456;2023-04-26T00:13:37;95309;;;1.7;92.5
56558;BME280;43358;50.356;12.456;2023-04-26T00:14:39;95303;;;1.7;92.5
56558;BME280;43358;50.356;12.456;2023-04-26T00:15:41;95307;;;1.7;92.7
56558;BME280;43358;50.356;12.456;2023-04-26T00:16:43;95305;;;1.7;92.8
56558;BME280;43358;50.356;12.456;2023-04-26T00:26:04;95302;;;1.8;92.3
56558;BME280;43358;50.356;12.456;2023-04-26T00:26:13;95306;;;1.8;92.4
56558;BME280;43358;50.356;12.456;2023-04-26T00:27:06;95304;;;1.8;91.9
56558;BME280;43358;50.356;12.456;2023-04-26T00:28:08;95300;;;1.8;91.9
56558;BME280;43358;50.356;12.456;2023-04-26T00:29:10;95300;;;1.8;92.1
56558;BME280;43358;50.356;12.456;2023-04-26T00:30:12;95303;;;1.8;92.1
56558;BME280;43358;50.356;12.456;2023-04-26T00:31:14;95306;;;1.8;92.2
56558;BME280;43358;50.356;12.456;2023-04-26T00:32:16;95306;;;1.8;92.2
56558;BME280;43358;50.356;12.456;2023-04-26T00:33:18;95303;;;1.8;92.1
56558;BME280;43358;50.356;12.456;2023-04-26T00:34:20;95306;;;1.8;92.2
56558;BME280;43358;50.356;12.456;2023-04-26T00:35:22;95309;;;1.8;92.2
56558;BME280;43358;50.356;12.456;2023-04-26T00:36:24;95308;;;1.8;92.3
56558;BME280;43358;50.356;12.456;2023-04-26T00:37:26;95311;;;1.8;92.3
56558;BME280;43358;50.356;12.456;2023-04-26T00:38:28;95311;;;1.8;92.4
56558;BME280;43358;50.356;12.456;2023-04-26T00:39:30;95308;;;1.8;92.2
56558;BME280;43358;50.356;12.456;2023-04-26T00:40:32;95312;;;1.9;91.9
56558;BME280;43358;50.356;12.456;2023-04-26T00:41:34;95310;;;1.9;91.7
56558;BME280;43358;50.356;12.456;2023-04-26T00:42:36;95310;;;2;91.6
56558;BME280;43358;50.356;12.456;2023-04-26T00:43:38;95315;;;2;91.5
56558;BME280;43358;50.356;12.456;2023-04-26T00:44:40;95310;;;2;91.6
56558;BME280;43358;50.356;12.456;2023-04-26T00:45:43;95313;;;2;91.4
56558;BME280;43358;50.356;12.456;2023-04-26T00:46:45;95313;;;2;91.5
56558;BME280;43358;50.356;12.456;2023-04-26T00:47:47;95314;;;1.9;92
56558;BME280;43358;50.356;12.456;2023-04-26T00:48:49;95313;;;1.9;92.4
56558;BME280;43358;50.356;12.456;2023-04-26T00:49:51;95320;;;1.9;92.5
56558;BME280;43358;50.356;12.456;2023-04-26T00:50:53;95319;;;1.8;92.7
56558;BME280;43358;50.356;12.456;2023-04-26T00:51:55;95315;;;1.8;92.9
56558;BME280;43358;50.356;12.456;2023-04-26T00:52:58;95318;;;1.8;93.1
56558;BME280;43358;50.356;12.456;2023-04-26T00:54:01;95318;;;1.8;93.2
56558;BME280;43358;50.356;12.456;2023-04-26T00:55:03;95318;;;1.8;93.4
56558;BME280;43358;50.356;12.456;2023-04-26T00:56:05;95319;;;1.8;93.7
56558;BME280;43358;50.356;12.456;2023-04-26T00:57:07;95318;;;1.8;93.7
56558;BME280;43358;50.356;12.456;2023-04-26T00:58:09;95318;;;1.8;93.6
56558;BME280;43358;50.356;12.456;2023-04-26T00:59:11;95320;;;1.9;93.7
56558;BME280;43358;50.356;12.456;2023-04-26T01:00:14;95321;;;1.8;93.6
56558;BME280;43358;50.356;12.456;2023-04-26T01:01:16;95320;;;1.9;93.8
56558;BME280;43358;50.356;12.456;2023-04-26T01:02:18;95319;;;1.9;93.9
56558;BME280;43358;50.356;12.456;2023-04-26T01:03:20;95319;;;1.9;94.2
56558;BME280;43358;50.356;12.456;2023-04-26T01:04:22;95318;;;1.9;93.9
56558;BME280;43358;50.356;12.456;2023-04-26T01:05:24;95319;;;1.9;94
56558;BME280;43358;50.356;12.456;2023-04-26T01:06:28;95319;;;1.9;93.8
56558;BME280;43358;50.356;12.456;2023-04-26T01:07:30;95321;;;1.8;94.1
56558;BME280;43358;50.356;12.456;2023-04-26T01:08:32;95321;;;1.8;94.4
56558;BME280;43358;50.356;12.456;2023-04-26T01:09:34;95326;;;1.8;94.6
56558;BME280;43358;50.356;12.456;2023-04-26T01:10:36;95327;;;1.9;94.6
56558;BME280;43358;50.356;12.456;2023-04-26T01:11:38;95321;;;1.9;94.6
56558;BME280;43358;50.356;12.456;2023-04-26T01:12:40;95322;;;1.9;94.7
56558;BME280;43358;50.356;12.456;2023-04-26T01:13:42;95322;;;1.9;94.9
56558;BME280;43358;50.356;12.456;2023-04-26T01:14:44;95320;;;1.9;94.9
56558;BME280;43358;50.356;12.456;2023-04-26T01:15:46;95319;;;1.9;95
56558;BME280;43358;50.356;12.456;2023-04-26T01:16:48;95322;;;1.9;94.9
56558;BME280;43358;50.356;12.456;2023-04-26T01:17:50;95323;;;2;94.9
56558;BME280;43358;50.356;12.456;2023-04-26T01:18:52;95323;;;2;95
56558;BME280;43358;50.356;12.456;2023-04-26T01:19:54;95322;;;2;95.1
56558;BME280;43358;50.356;12.456;2023-04-26T01:20:58;95319;;;2;95
56558;BME280;43358;50.356;12.456;2023-04-26T01:22:01;95323;;;2;95
56558;BME280;43358;50.356;12.456;2023-04-26T01:23:03;95323;;;2;95.2
56558;BME280;43358;50.356;12.456;2023-04-26T01:24:05;95326;;;2;95.2
56558;BME280;43358;50.356;12.456;2023-04-26T01:25:07;95329;;;2.1;94.8
56558;BME280;43358;50.356;12.456;2023-04-26T01:26:09;95326;;;2.1;94.1
56558;BME280;43358;50.356;12.456;2023-04-26T01:27:11;95324;;;2.2;93.8
56558;BME280;43358;50.356;12.456;2023-04-26T01:28:13;95326;;;2.2;94
56558;BME280;43358;50.356;12.456;2023-04-26T01:29:16;95326;;;2.2;94.3
56558;BME280;43358;50.356;12.456;2023-04-26T01:30:17;95329;;;2.2;94.2
56558;BME280;43358;50.356;12.456;2023-04-26T01:31:19;95328;;;2.3;93.8
56558;BME280;43358;50.356;12.456;2023-04-26T01:32:21;95327;;;2.3;93.8
56558;BME280;43358;50.356;12.456;2023-04-26T01:33:23;95325;;;2.3;94
56558;BME280;43358;50.356;12.456;2023-04-26T01:34:25;95326;;;2.2;94.1
56558;BME280;43358;50.356;12.456;2023-04-26T01:35:27;95329;;;2.2;94.3
56558;BME280;43358;50.356;12.456;2023-04-26T01:36:29;95328;;;2.2;94.6
56558;BME280;43358;50.356;12.456;2023-04-26T01:37:31;95333;;;2.2;95
56558;BME280;43358;50.356;12.456;2023-04-26T01:38:33;95331;;;2.2;95.2
56558;BME280;43358;50.356;12.456;2023-04-26T01:39:35;95335;;;2.1;95.2
56558;BME280;43358;50.356;12.456;2023-04-26T01:40:37;95336;;;2.1;94.9
56558;BME280;43358;50.356;12.456;2023-04-26T01:41:39;95334;;;2.1;95.1
56558;BME280;43358;50.356;12.456;2023-04-26T01:42:41;95337;;;2.1;95.2
56558;BME280;43358;50.356;12.456;2023-04-26T01:43:43;95333;;;2.1;95.2
56558;BME280;43358;50.356;12.456;2023-04-26T01:44:45;95336;;;2.1;95.4
56558;BME280;43358;50.356;12.456;2023-04-26T01:45:47;95332;;;2.1;95.6
56558;BME280;43358;50.356;12.456;2023-04-26T01:46:49;95333;;;2.1;95.7
56558;BME280;43358;50.356;12.456;2023-04-26T01:47:51;95333;;;2.1;95.7
56558;BME280;43358;50.356;12.456;2023-04-26T01:48:54;95330;;;2.1;95.4
56558;BME280;43358;50.356;12.456;2023-04-26T01:49:56;95327;;;2.2;95.4
56558;BME280;43358;50.356;12.456;2023-04-26T01:50:58;95330;;;2.2;95.3
56558;BME280;43358;50.356;12.456;2023-04-26T01:52:00;95327;;;2.2;95
56558;BME280;43358;50.356;12.456;2023-04-26T01:53:02;95329;;;2.2;95
56558;BME280;43358;50.356;12.456;2023-04-26T01:54:04;95329;;;2.2;95
56558;BME280;43358;50.356;12.456;2023-04-26T01:55:06;95331;;;2.2;94.9
56558;BME280;43358;50.356;12.456;2023-04-26T01:56:08;95329;;;2.2;95.2
56558;BME280;43358;50.356;12.456;2023-04-26T01:57:10;95329;;;2.2;95.2
56558;BME280;43358;50.356;12.456;2023-04-26T01:58:12;95326;;;2.2;95.3
56558;BME280;43358;50.356;12.456;2023-04-26T01:59:14;95329;;;2.2;95.5
56558;BME280;43358;50.356;12.456;2023-04-26T02:00:16;95329;;;2.2;95.7
56558;BME280;43358;50.356;12.456;2023-04-26T02:01:18;95331;;;2.2;95.8
56558;BME280;43358;50.356;12.456;2023-04-26T02:02:20;95331;;;2.2;95.9
56558;BME280;43358;50.356;12.456;2023-04-26T02:03:22;95334;;;2.2;95.9
56558;BME280;43358;50.356;12.456;2023-04-26T02:04:26;95333;;;2.2;96
56558;BME280;43358;50.356;12.456;2023-04-26T02:05:27;95331;;;2.2;96.2
56558;BME280;43358;50.356;12.456;2023-04-26T02:06:29;95331;;;2.2;96.1
56558;BME280;43358;50.356;12.456;2023-04-26T02:07:31;95333;;;2.2;96
56558;BME280;43358;50.356;12.456;2023-04-26T02:08:34;95335;;;2.2;95.9
56558;BME280;43358;50.356;12.456;2023-04-26T02:09:36;95337;;;2.2;95.9
56558;BME280;43358;50.356;12.456;2023-04-26T02:10:38;95337;;;2.2;95.8
56558;BME280;43358;50.356;12.456;2023-04-26T02:11:40;95337;;;2.2;95.8
56558;BME280;43358;50.356;12.456;2023-04-26T02:12:42;95336;;;2.2;95.8
56558;BME280;43358;50.356;12.456;2023-04-26T02:13:44;95335;;;2.2;95.8
56558;BME280;43358;50.356;12.456;2023-04-26T02:14:46;95335;;;2.2;95.7
56558;BME280;43358;50.356;12.456;2023-04-26T02:15:48;95335;;;2.2;95.6
56558;BME280;43358;50.356;12.456;2023-04-26T02:16:50;95334;;;2.2;95.4
56558;BME280;43358;50.356;12.456;2023-04-26T02:18:54;95333;;;2.2;95.6
56558;BME280;43358;50.356;12.456;2023-04-26T02:19:56;95335;;;2.2;95.6
56558;BME280;43358;50.356;12.456;2023-04-26T02:21:06;95333;;;2.2;95.5
56558;BME280;43358;50.356;12.456;2023-04-26T02:22:04;95338;;;2.2;95.3
56558;BME280;43358;50.356;12.456;2023-04-26T02:23:06;95337;;;2.2;95.2
56558;BME280;43358;50.356;12.456;2023-04-26T02:24:08;95336;;;2.2;95.3
56558;BME280;43358;50.356;12.456;2023-04-26T02:25:10;95337;;;2.2;95.3
56558;BME280;43358;50.356;12.456;2023-04-26T02:26:12;95338;;;2.2;95.4
56558;BME280;43358;50.356;12.456;2023-04-26T02:27:14;95335;;;2.2;95.5
56558;BME280;43358;50.356;12.456;2023-04-26T02:28:16;95335;;;2.2;95.4
56558;BME280;43358;50.356;12.456;2023-04-26T02:29:18;95335;;;2.2;95.4
56558;BME280;43358;50.356;12.456;2023-04-26T02:30:20;95334;;;2.2;95.4
56558;BME280;43358;50.356;12.456;2023-04-26T02:31:22;95335;;;2.2;95.7
56558;BME280;43358;50.356;12.456;2023-04-26T02:32:24;95336;;;2.2;95.5
56558;BME280;43358;50.356;12.456;2023-04-26T02:33:26;95338;;;2.2;95.3
56558;BME280;43358;50.356;12.456;2023-04-26T02:34:28;95335;;;2.2;95.4
56558;BME280;43358;50.356;12.456;2023-04-26T02:35:30;95337;;;2.1;95.5
56558;BME280;43358;50.356;12.456;2023-04-26T02:36:32;95336;;;2.2;95.6
56558;BME280;43358;50.356;12.456;2023-04-26T02:37:34;95330;;;2.2;95.5
56558;BME280;43358;50.356;12.456;2023-04-26T02:38:36;95330;;;2.2;95.4
56558;BME280;43358;50.356;12.456;2023-04-26T02:39:38;95335;;;2.2;95.5
56558;BME280;43358;50.356;12.456;2023-04-26T02:40:40;95334;;;2.2;95.7
56558;BME280;43358;50.356;12.456;2023-04-26T02:41:42;95335;;;2.2;95.7
56558;BME280;43358;50.356;12.456;2023-04-26T02:42:45;95333;;;2.3;95
56558;BME280;43358;50.356;12.456;2023-04-26T02:43:48;95332;;;2.3;94.6
56558;BME280;43358;50.356;12.456;2023-04-26T02:44:50;95332;;;2.4;94.4
56558;BME280;43358;50.356;12.456;2023-04-26T02:45:53;95331;;;2.4;94.3
56558;BME280;43358;50.356;12.456;2023-04-26T02:46:55;95331;;;2.4;94.4
56558;BME280;43358;50.356;12.456;2023-04-26T02:47:58;95328;;;2.4;94.7
56558;BME280;43358;50.356;12.456;2023-04-26T02:49:01;95331;;;2.4;94.3
56558;BME280;43358;50.356;12.456;2023-04-26T02:50:05;95330;;;2.4;94.4
56558;BME280;43358;50.356;12.456;2023-04-26T02:51:06;95329;;;2.3;94.7
56558;BME280;43358;50.356;12.456;2023-04-26T02:52:08;95331;;;2.3;95
56558;BME280;43358;50.356;12.456;2023-04-26T02:53:10;95329;;;2.3;95.2
56558;BME280;43358;50.356;12.456;2023-04-26T02:55:14;95329;;;2.3;95.4
56558;BME280;43358;50.356;12.456;2023-04-26T02:56:16;95329;;;2.3;94.7
56558;BME280;43358;50.356;12.456;2023-04-26T02:57:18;95331;;;2.4;94.7
56558;BME280;43358;50.356;12.456;2023-04-26T02:58:20;95327;;;2.4;94.7
56558;BME280;43358;50.356;12.456;2023-04-26T02:59:22;95329;;;2.4;95
56558;BME280;43358;50.356;12.456;2023-04-26T03:00:24;95329;;;2.3;95.2
56558;BME280;43358;50.356;12.456;2023-04-26T03:01:26;95330;;;2.3;94.9
56558;BME280;43358;50.356;12.456;2023-04-26T03:02:29;95331;;;2.3;94.8
56558;BME280;43358;50.356;12.456;2023-04-26T03:03:31;95330;;;2.3;94.7
56558;BME280;43358;50.356;12.456;2023-04-26T03:04:33;95329;;;2.3;94.8
56558;BME280;43358;50.356;12.456;2023-04-26T03:06:37;95329;;;2.3;95.1
56558;BME280;43358;50.356;12.456;2023-04-26T03:07:39;95326;;;2.2;95.2
56558;BME280;43358;50.356;12.456;2023-04-26T03:08:41;95326;;;2.2;95.3
56558;BME280;43358;50.356;12.456;2023-04-26T03:09:43;95325;;;2.2;95.5
56558;BME280;43358;50.356;12.456;2023-04-26T03:11:01;95324;;;2.2;95.7
56558;BME280;43358;50.356;12.456;2023-04-26T03:11:48;95325;;;2.2;95.5
56558;BME280;43358;50.356;12.456;2023-04-26T03:12:50;95325;;;2.3;95.2
56558;BME280;43358;50.356;12.456;2023-04-26T03:13:52;95329;;;2.3;94.7
56558;BME280;43358;50.356;12.456;2023-04-26T03:14:54;95326;;;2.4;94.4
56558;BME280;43358;50.356;12.456;2023-04-26T03:15:56;95326;;;2.4;94.3
56558;BME280;43358;50.356;12.456;2023-04-26T03:16:58;95326;;;2.4;94.2
56558;BME280;43358;50.356;12.456;2023-04-26T03:18:02;95325;;;2.4;94.2
56558;BME280;43358;50.356;12.456;2023-04-26T03:19:04;95324;;;2.4;94.2
56558;BME280;43358;50.356;12.456;2023-04-26T03:20:06;95324;;;2.4;94
56558;BME280;43358;50.356;12.456;2023-04-26T03:21:08;95318;;;2.4;94
56558;BME280;43358;50.356;12.456;2023-04-26T03:22:10;95320;;;2.3;94.4
56558;BME280;43358;50.356;12.456;2023-04-26T03:23:12;95321;;;2.3;94.8
56558;BME280;43358;50.356;12.456;2023-04-26T03:24:14;95320;;;2.3;95.1
56558;BME280;43358;50.356;12.456;2023-04-26T03:25:16;95318;;;2.2;95.3
56558;BME280;43358;50.356;12.456;2023-04-26T03:26:18;95316;;;2.2;95.3
56558;BME280;43358;50.356;12.456;2023-04-26T03:27:21;95318;;;2.2;95.3
56558;BME280;43358;50.356;12.456;2023-04-26T03:28:23;95315;;;2.2;95.4
56558;BME280;43358;50.356;12.456;2023-04-26T03:29:25;95316;;;2.2;95.5
56558;BME280;43358;50.356;12.456;2023-04-26T03:30:27;95312;;;2.2;95.4
56558;BME280;43358;50.356;12.456;2023-04-26T03:31:29;95313;;;2.2;95.5
56558;BME280;43358;50.356;12.456;2023-04-26T03:32:31;95317;;;2.2;95.2
56558;BME280;43358;50.356;12.456;2023-04-26T03:33:33;95315;;;2.3;94.5
56558;BME280;43358;50.356;12.456;2023-04-26T03:34:35;95318;;;2.3;94.6
56558;BME280;43358;50.356;12.456;2023-04-26T03:35:38;95317;;;2.3;94.9
56558;BME280;43358;50.356;12.456;2023-04-26T03:36:40;95320;;;2.3;95.1
56558;BME280;43358;50.356;12.456;2023-04-26T03:37:43;95319;;;2.3;95.2
56558;BME280;43358;50.356;12.456;2023-04-26T03:38:44;95324;;;2.3;95.1
56558;BME280;43358;50.356;12.456;2023-04-26T03:39:46;95325;;;2.3;95.2
56558;BME280;43358;50.356;12.456;2023-04-26T03:40:48;95324;;;2.3;95.4
56558;BME280;43358;50.356;12.456;2023-04-26T03:41:50;95324;;;2.4;95.2
56558;BME280;43358;50.356;12.456;2023-04-26T03:42:52;95329;;;2.4;95.4
56558;BME280;43358;50.356;12.456;2023-04-26T03:43:54;95328;;;2.4;95.4
56558;BME280;43358;50.356;12.456;2023-04-26T03:44:56;95329;;;2.4;95.4
56558;BME280;43358;50.356;12.456;2023-04-26T03:45:58;95326;;;2.4;94.8
56558;BME280;43358;50.356;12.456;2023-04-26T03:47:02;95328;;;2.5;94.4
56558;BME280;43358;50.356;12.456;2023-04-26T03:48:04;95328;;;2.5;94.5
56558;BME280;43358;50.356;12.456;2023-04-26T03:49:06;95326;;;2.4;94.6
56558;BME280;43358;50.356;12.456;2023-04-26T03:50:09;95334;;;2.4;94.7
56558;BME280;43358;50.356;12.456;2023-04-26T03:51:10;95334;;;2.4;94.8
56558;BME280;43358;50.356;12.456;2023-04-26T03:52:12;95337;;;2.4;94.2
56558;BME280;43358;50.356;12.456;2023-04-26T03:53:14;95334;;;2.5;93.8
56558;BME280;43358;50.356;12.456;2023-04-26T03:54:16;95337;;;2.5;93.8
56558;BME280;43358;50.356;12.456;2023-04-26T03:55:18;95340;;;2.5;94
56558;BME280;43358;50.356;12.456;2023-04-26T03:56:20;95335;;;2.4;94.4
56558;BME280;43358;50.356;12.456;2023-04-26T03:57:22;95340;;;2.5;94
56558;BME280;43358;50.356;12.456;2023-04-26T03:58:24;95338;;;2.5;93.5
56558;BME280;43358;50.356;12.456;2023-04-26T03:59:26;95336;;;2.5;93.4
56558;BME280;43358;50.356;12.456;2023-04-26T04:00:29;95339;;;2.5;93.5
56558;BME280;43358;50.356;12.456;2023-04-26T04:01:31;95340;;;2.5;93.5
56558;BME280;43358;50.356;12.456;2023-04-26T04:02:33;95339;;;2.5;93.6
56558;BME280;43358;50.356;12.456;2023-04-26T04:03:35;95337;;;2.5;93.8
56558;BME280;43358;50.356;12.456;2023-04-26T04:04:38;95336;;;2.5;93.5
56558;BME280;43358;50.356;12.456;2023-04-26T04:05:40;95336;;;2.5;93.8
56558;BME280;43358;50.356;12.456;2023-04-26T04:06:42;95339;;;2.5;94.2
56558;BME280;43358;50.356;12.456;2023-04-26T04:07:44;95335;;;2.5;94.4
56558;BME280;43358;50.356;12.456;2023-04-26T04:08:46;95337;;;2.5;94.5
56558;BME280;43358;50.356;12.456;2023-04-26T04:09:48;95338;;;2.5;94.3
56558;BME280;43358;50.356;12.456;2023-04-26T04:10:50;95338;;;2.5;94.3
56558;BME280;43358;50.356;12.456;2023-04-26T04:11:52;95341;;;2.5;94.4
56558;BME280;43358;50.356;12.456;2023-04-26T04:12:54;95337;;;2.5;94.4
56558;BME280;43358;50.356;12.456;2023-04-26T04:13:56;95335;;;2.5;94.3
56558;BME280;43358;50.356;12.456;2023-04-26T04:15:02;95336;;;2.5;94.2
56558;BME280;43358;50.356;12.456;2023-04-26T04:16:04;95338;;;2.5;94
56558;BME280;43358;50.356;12.456;2023-04-26T04:17:07;95336;;;2.5;93.9
56558;BME280;43358;50.356;12.456;2023-04-26T04:18:09;95336;;;2.5;93.9
56558;BME280;43358;50.356;12.456;2023-04-26T04:19:12;95338;;;2.5;93.7
56558;BME280;43358;50.356;12.456;2023-04-26T04:20:14;95338;;;2.6;93.4
56558;BME280;43358;50.356;12.456;2023-04-26T04:21:16;95342;;;2.6;93.7
56558;BME280;43358;50.356;12.456;2023-04-26T04:22:18;95348;;;2.6;93.4
56558;BME280;43358;50.356;12.456;2023-04-26T04:23:20;95344;;;2.7;93
56558;BME280;43358;50.356;12.456;2023-04-26T04:24:22;95348;;;2.7;92.7
56558;BME280;43358;50.356;12.456;2023-04-26T04:25:24;95347;;;2.8;92.1
56558;BME280;43358;50.356;12.456;2023-04-26T04:26:26;95349;;;2.7;91.7
56558;BME280;43358;50.356;12.456;2023-04-26T04:27:28;95355;;;2.8;91.8
56558;BME280;43358;50.356;12.456;2023-04-26T04:28:31;95352;;;2.8;91.7
56558;BME280;43358;50.356;12.456;2023-04-26T04:29:32;95354;;;2.8;91.5
56558;BME280;43358;50.356;12.456;2023-04-26T04:30:34;95354;;;2.8;91.2
56558;BME280;43358;50.356;12.456;2023-04-26T04:31:36;95357;;;2.8;91.3
56558;BME280;43358;50.356;12.456;2023-04-26T04:32:38;95360;;;2.8;91.8
56558;BME280;43358;50.356;12.456;2023-04-26T04:33:40;95363;;;2.8;91.8
56558;BME280;43358;50.356;12.456;2023-04-26T04:34:42;95361;;;2.7;91.6
56558;BME280;43358;50.356;12.456;2023-04-26T04:35:44;95367;;;2.7;91.6
56558;BME280;43358;50.356;12.456;2023-04-26T04:36:46;95367;;;2.7;91.7
56558;BME280;43358;50.356;12.456;2023-04-26T04:37:48;95369;;;2.7;91.7
56558;BME280;43358;50.356;12.456;2023-04-26T04:38:50;95369;;;2.7;91.6
56558;BME280;43358;50.356;12.456;2023-04-26T04:39:52;95372;;;2.7;91.2
56558;BME280;43358;50.356;12.456;2023-04-26T04:40:54;95372;;;2.7;91.2
56558;BME280;43358;50.356;12.456;2023-04-26T04:41:56;95376;;;2.7;91.4
56558;BME280;43358;50.356;12.456;2023-04-26T04:42:58;95374;;;2.7;91.5
56558;BME280;43358;50.356;12.456;2023-04-26T04:45:05;95378;;;2.7;91.2
56558;BME280;43358;50.356;12.456;2023-04-26T04:46:06;95380;;;2.7;91.1
56558;BME280;43358;50.356;12.456;2023-04-26T04:47:08;95382;;;2.7;91
56558;BME280;43358;50.356;12.456;2023-04-26T04:48:10;95385;;;2.7;90.7
56558;BME280;43358;50.356;12.456;2023-04-26T04:49:12;95388;;;2.8;90.5
56558;BME280;43358;50.356;12.456;2023-04-26T04:50:14;95386;;;2.8;90.5
56558;BME280;43358;50.356;12.456;2023-04-26T04:51:16;95392;;;2.8;89.5
56558;BME280;43358;50.356;12.456;2023-04-26T04:52:18;95387;;;2.8;89.5
56558;BME280;43358;50.356;12.456;2023-04-26T04:53:20;95380;;;2.8;88.8
56558;BME280;43358;50.356;12.456;2023-04-26T04:54:22;95380;;;2.8;88.5
56558;BME280;43358;50.356;12.456;2023-04-26T04:55:24;95378;;;2.8;88.1
56558;BME280;43358;50.356;12.456;2023-04-26T04:56:26;95377;;;2.8;88.6
56558;BME280;43358;50.356;12.456;2023-04-26T04:57:28;95388;;;2.8;88.7
56558;BME280;43358;50.356;12.456;2023-04-26T04:58:30;95382;;;2.7;88.6
56558;BME280;43358;50.356;12.456;2023-04-26T04:59:32;95387;;;2.8;88.7
56558;BME280;43358;50.356;12.456;2023-04-26T05:00:34;95382;;;2.8;88.9
56558;BME280;43358;50.356;12.456;2023-04-26T05:01:36;95383;;;2.8;88.4
56558;BME280;43358;50.356;12.456;2023-04-26T05:02:38;95385;;;2.8;87.9
56558;BME280;43358;50.356;12.456;2023-04-26T05:03:41;95383;;;2.8;88.1
56558;BME280;43358;50.356;12.456;2023-04-26T05:04:42;95385;;;2.7;87.8
56558;BME280;43358;50.356;12.456;2023-04-26T05:05:44;95391;;;2.7;87.9
56558;BME280;43358;50.356;12.456;2023-04-26T05:06:46;95393;;;2.7;88.2
56558;BME280;43358;50.356;12.456;2023-04-26T05:07:48;95394;;;2.7;88.1
56558;BME280;43358;50.356;12.456;2023-04-26T05:08:50;95393;;;2.7;87.5
56558;BME280;43358;50.356;12.456;2023-04-26T05:09:52;95396;;;2.7;88
56558;BME280;43358;50.356;12.456;2023-04-26T05:10:54;95399;;;2.7;88.1
56558;BME280;43358;50.356;12.456;2023-04-26T05:11:56;95397;;;2.8;86.9
56558;BME280;43358;50.356;12.456;2023-04-26T05:12:58;95398;;;2.8;86.8
56558;BME280;43358;50.356;12.456;2023-04-26T05:14:02;95399;;;2.7;87.1
56558;BME280;43358;50.356;12.456;2023-04-26T05:15:06;95399;;;2.7;86.3
56558;BME280;43358;50.356;12.456;2023-04-26T05:16:07;95400;;;2.7;86.6
56558;BME280;43358;50.356;12.456;2023-04-26T05:17:09;95402;;;2.7;87.5
56558;BME280;43358;50.356;12.456;2023-04-26T05:18:11;95403;;;2.7;87.7
56558;BME280;43358;50.356;12.456;2023-04-26T05:19:13;95405;;;2.7;87.6
56558;BME280;43358;50.356;12.456;2023-04-26T05:20:15;95404;;;2.7;87
56558;BME280;43358;50.356;12.456;2023-04-26T05:21:17;95409;;;2.7;87.1
56558;BME280;43358;50.356;12.456;2023-04-26T05:22:19;95406;;;2.7;87.6
56558;BME280;43358;50.356;12.456;2023-04-26T05:23:21;95407;;;2.7;86.9
56558;BME280;43358;50.356;12.456;2023-04-26T05:25:26;95405;;;2.8;86.8
56558;BME280;43358;50.356;12.456;2023-04-26T05:26:28;95409;;;2.7;87.2
56558;BME280;43358;50.356;12.456;2023-04-26T05:27:31;95410;;;2.7;87.8
56558;BME280;43358;50.356;12.456;2023-04-26T05:28:33;95411;;;2.8;87.7
56558;BME280;43358;50.356;12.456;2023-04-26T05:29:35;95409;;;2.8;87.2
56558;BME280;43358;50.356;12.456;2023-04-26T05:30:37;95413;;;2.8;87.6
56558;BME280;43358;50.356;12.456;2023-04-26T05:31:39;95410;;;2.8;87.8
56558;BME280;43358;50.356;12.456;2023-04-26T05:32:41;95410;;;2.8;86.9
56558;BME280;43358;50.356;12.456;2023-04-26T05:33:44;95414;;;2.8;86.6
56558;BME280;43358;50.356;12.456;2023-04-26T05:34:45;95413;;;2.8;87.4
56558;BME280;43358;50.356;12.456;2023-04-26T05:35:47;95416;;;2.8;87.5
56558;BME280;43358;50.356;12.456;2023-04-26T05:36:49;95422;;;2.8;87.8
56558;BME280;43358;50.356;12.456;2023-04-26T05:37:51;95424;;;2.8;87.7
56558;BME280;43358;50.356;12.456;2023-04-26T05:39:21;95425;;;2.8;87.2
56558;BME280;43358;50.356;12.456;2023-04-26T05:40:21;95423;;;2.9;86.9
56558;BME280;43358;50.356;12.456;2023-04-26T05:41:21;95424;;;2.9;87.2
56558;BME280;43358;50.356;12.456;2023-04-26T05:42:21;95424;;;2.9;87.2
56558;BME280;43358;50.356;12.456;2023-04-26T05:43:21;95426;;;2.9;87.5
56558;BME280;43358;50.356;12.456;2023-04-26T05:45:08;95428;;;2.9;86.2
56558;BME280;43358;50.356;12.456;2023-04-26T05:46:09;95423;;;2.9;85.8
56558;BME280;43358;50.356;12.456;2023-04-26T05:47:11;95424;;;2.9;86.2
56558;BME280;43358;50.356;12.456;2023-04-26T05:48:13;95425;;;2.9;87
56558;BME280;43358;50.356;12.456;2023-04-26T05:49:15;95427;;;2.9;87
56558;BME280;43358;50.356;12.456;2023-04-26T05:50:17;95426;;;2.9;87.1
56558;BME280;43358;50.356;12.456;2023-04-26T05:51:20;95426;;;2.9;87
56558;BME280;43358;50.356;12.456;2023-04-26T05:52:21;95430;;;2.9;87.1
56558;BME280;43358;50.356;12.456;2023-04-26T05:53:23;95426;;;2.9;87.4
56558;BME280;43358;50.356;12.456;2023-04-26T05:54:25;95424;;;2.9;86.1
56558;BME280;43358;50.356;12.456;2023-04-26T05:55:27;95427;;;2.9;86.9
56558;BME280;43358;50.356;12.456;2023-04-26T05:56:29;95429;;;2.9;87.1
56558;BME280;43358;50.356;12.456;2023-04-26T05:57:31;95429;;;2.9;87
56558;BME280;43358;50.356;12.456;2023-04-26T05:58:33;95428;;;2.9;87.2
56558;BME280;43358;50.356;12.456;2023-04-26T05:59:35;95427;;;2.9;87.4
56558;BME280;43358;50.356;12.456;2023-04-26T06:00:37;95427;;;3;87.4
56558;BME280;43358;50.356;12.456;2023-04-26T06:01:39;95432;;;3;87.3
56558;BME280;43358;50.356;12.456;2023-04-26T06:03:21;95434;;;3;87.6
56558;BME280;43358;50.356;12.456;2023-04-26T06:04:45;95427;;;3;87
56558;BME280;43358;50.356;12.456;2023-04-26T06:05:47;95431;;;3;87.2
56558;BME280;43358;50.356;12.456;2023-04-26T06:06:49;95430;;;3;87.4
56558;BME280;43358;50.356;12.456;2023-04-26T06:07:52;95430;;;3;87.1